Time;durP1;ratioP1;P1;durP2;ratioP2;P2;SDS_P1;SDS_P2;PMS_P1;PMS_P2;Temp;Humidity;BMP_temperature;BMP_pressure;BME280_temperature;BME280_humidity;BME280_pressure;Samples;Min_cycle;Max_cycle;Signal;HPM_P1;HPM_P2
2022/06/16 00:02:15;;;;;;;10.52;3.05;;;28.10;99.90;;;;;;5092686;28;20427;-52
2022/06/16 00:04:46;;;;;;;11.02;2.78;;;28.10;99.90;;;;;;5092785;28;20472;-52
2022/06/16 00:07:13;;;;;;;11.35;3.83;;;28.10;99.90;;;;;;5092860;28;20024;-52
2022/06/16 00:09:39;;;;;;;11.90;2.72;;;28.10;99.90;;;;;;5092712;28;20032;-51
2022/06/16 00:12:05;;;;;;;10.20;3.10;;;28.10;99.90;;;;;;5092899;28;20417;-51
2022/06/16 00:14:31;;;;;;;11.38;2.60;;;28.10;99.90;;;;;;5092559;28;20032;-51
2022/06/16 00:16:57;;;;;;;10.02;2.65;;;28.00;99.90;;;;;;5092501;28;20105;-51
2022/06/16 00:19:23;;;;;;;12.38;2.60;;;28.00;99.90;;;;;;5092399;28;20020;-51
2022/06/16 00:21:48;;;;;;;9.82;2.78;;;28.00;99.90;;;;;;5092380;28;20050;-51
2022/06/16 00:24:14;;;;;;;21.00;3.13;;;28.00;99.90;;;;;;5091292;28;20441;-51
2022/06/16 00:26:40;;;;;;;12.60;2.53;;;28.00;99.90;;;;;;5092302;28;20054;-51
2022/06/16 00:29:06;;;;;;;11.10;3.20;;;28.00;99.90;;;;;;5092315;28;20050;-51
2022/06/16 00:31:31;;;;;;;12.18;3.42;;;28.00;99.90;;;;;;5092159;28;20048;-51
2022/06/16 00:33:57;;;;;;;9.98;3.05;;;28.00;99.90;;;;;;5092151;28;20502;-51
2022/06/16 00:36:24;;;;;;;11.90;3.90;;;27.90;99.90;;;;;;5092252;28;20376;-53
2022/06/16 00:38:50;;;;;;;15.40;4.03;;;27.90;99.90;;;;;;5092159;28;20020;-51
2022/06/16 00:41:16;;;;;;;8.52;2.95;;;27.90;99.90;;;;;;5092247;28;20531;-55
2022/06/16 00:43:42;;;;;;;17.35;4.32;;;27.90;99.90;;;;;;5091897;28;20035;-53
2022/06/16 00:46:19;;;;;;;12.52;4.10;;;27.80;99.90;;;;;;5092076;28;20532;-53
2022/06/16 00:48:56;;;;;;;13.80;4.00;;;27.60;99.90;;;;;;5091938;28;20064;-54
2022/06/16 00:51:37;;;;;;;13.27;5.20;;;27.40;99.90;;;;;;5092041;28;20028;-53
2022/06/16 00:54:11;;;;;;;13.65;3.97;;;27.40;99.90;;;;;;5091977;28;20020;-52
2022/06/16 00:56:38;;;;;;;8.48;3.50;;;27.40;99.90;;;;;;5091972;28;20090;-53
2022/06/16 01:01:45;;;;;;;9.80;3.30;;;27.40;99.90;;;;;;5049803;28;20052;-49
2022/06/16 01:06:57;;;;;;;10.48;4.22;;;27.40;99.90;;;;;;5051393;28;20036;-49
2022/06/16 01:09:25;;;;;;;;;;;27.30;99.90;;;;;;5051815;28;20052;-49
2022/06/16 01:14:45;;;;;;;11.68;3.17;;;27.10;99.90;;;;;;5051533;28;20056;-49
2022/06/16 01:17:35;;;;;;;8.32;3.05;;;27.00;99.90;;;;;;5051465;28;20433;-49
2022/06/16 01:20:09;;;;;;;7.63;2.60;;;26.90;99.90;;;;;;5050880;28;20033;-49
2022/06/16 01:22:47;;;;;;;9.57;2.88;;;26.90;99.90;;;;;;5051151;28;20035;-50
2022/06/16 01:25:45;;;;;;;9.85;3.60;;;26.80;99.90;;;;;;5051316;28;20039;-49
2022/06/16 01:28:30;;;;;;;14.15;3.60;;;26.80;99.90;;;;;;5051258;28;20009;-49
2022/06/16 01:31:02;;;;;;;11.25;3.13;;;26.90;99.90;;;;;;5051048;28;20025;-49
2022/06/16 01:33:35;;;;;;;9.20;2.78;;;26.90;99.90;;;;;;5051174;28;20021;-49
2022/06/16 01:36:23;;;;;;;18.15;5.10;;;27.00;99.90;;;;;;5050875;28;20051;-49
2022/06/16 01:39:01;;;;;;;13.43;2.83;;;27.00;99.90;;;;;;5050897;28;20165;-47
2022/06/16 01:41:46;;;;;;;10.98;3.13;;;27.10;99.90;;;;;;5051071;28;20029;-49
2022/06/16 01:44:29;;;;;;;14.10;3.10;;;27.20;99.90;;;;;;5051142;28;20109;-48
2022/06/16 01:47:00;;;;;;;7.65;2.50;;;27.20;99.90;;;;;;5051058;28;20024;-48
2022/06/16 01:49:32;;;;;;;10.30;2.58;;;27.30;99.90;;;;;;5051006;28;20075;-49
2022/06/16 01:52:05;;;;;;;8.52;2.33;;;27.30;99.90;;;;;;5050993;28;20175;-48
2022/06/16 01:54:38;;;;;;;9.48;2.80;;;27.30;99.90;;;;;;5050879;28;20029;-48
2022/06/16 01:57:12;;;;;;;11.45;2.50;;;27.40;99.90;;;;;;5050905;28;20036;-49
2022/06/16 01:59:53;;;;;;;11.25;2.00;;;27.50;99.90;;;;;;5090951;22;20415;-54
2022/06/16 02:02:20;;;;;;;15.13;2.80;;;27.60;99.90;;;;;;5090951;28;20032;-54
2022/06/16 02:05:07;;;;;;;15.00;2.75;;;27.70;99.90;;;;;;5089861;28;20028;-55
2022/06/16 02:07:44;;;;;;;15.32;2.50;;;27.80;99.90;;;;;;5091060;28;20387;-55
2022/06/16 02:10:43;;;;;;;14.50;2.35;;;27.90;99.90;;;;;;5091396;28;20085;-55
2022/06/16 02:13:13;;;;;;;16.42;2.83;;;27.90;99.90;;;;;;5088147;28;20032;-54
2022/06/16 02:15:43;;;;;;;22.05;3.28;;;28.00;99.90;;;;;;5091163;28;20024;-54
2022/06/16 02:18:12;;;;;;;13.73;2.30;;;28.00;99.90;;;;;;5091158;28;20074;-55
2022/06/16 02:20:51;;;;;;;19.25;3.20;;;28.00;99.90;;;;;;5072966;28;20495;-55
2022/06/16 02:23:17;;;;;;;8.52;2.22;;;28.00;99.90;;;;;;5072716;28;20032;-54
2022/06/16 02:25:45;;;;;;;17.45;3.40;;;28.00;99.90;;;;;;5091216;28;20046;-55
2022/06/16 02:28:12;;;;;;;19.60;3.00;;;28.00;99.90;;;;;;5072971;28;20051;-55
2022/06/16 02:30:49;;;;;;;13.00;2.55;;;28.10;99.90;;;;;;5091048;28;20095;-55
2022/06/16 02:33:33;;;;;;;15.23;2.90;;;28.10;99.90;;;;;;5090814;28;20032;-55
2022/06/16 02:36:06;;;;;;;15.02;2.90;;;28.20;99.90;;;;;;5090888;28;20073;-55
2022/06/16 02:39:09;;;;;;;16.65;2.53;;;28.10;99.90;;;;;;5090636;28;20060;-55
2022/06/16 02:42:01;;;;;;;12.02;2.42;;;28.20;99.90;;;;;;5090559;28;20031;-55
2022/06/16 02:44:46;;;;;;;9.15;1.92;;;28.20;99.90;;;;;;5090593;28;20122;-54
2022/06/16 02:47:54;;;;;;;8.00;2.45;;;28.10;99.90;;;;;;5092683;28;20028;-55
2022/06/16 02:50:42;;;;;;;11.48;2.83;;;28.10;99.90;;;;;;5086586;28;20035;-55
2022/06/16 02:53:17;;;;;;;11.52;2.30;;;28.10;99.90;;;;;;5094147;28;20120;-55
2022/06/16 02:55:46;;;;;;;12.85;2.28;;;28.20;99.90;;;;;;5076710;28;20099;-55
2022/06/16 02:58:17;;;;;;;18.13;2.88;;;28.20;99.90;;;;;;5094334;28;20024;-55
2022/06/16 03:00:46;;;;;;;16.70;2.65;;;28.30;99.90;;;;;;5076525;28;20048;-55
2022/06/16 03:03:16;;;;;;;20.02;2.80;;;28.30;99.90;;;;;;5094038;28;20567;-54
2022/06/16 03:05:41;;;;;;;14.90;2.88;;;28.30;99.90;;;;;;5094106;28;20031;-55
2022/06/16 03:08:07;;;;;;;12.23;2.97;;;28.30;99.90;;;;;;5093786;28;20020;-54
2022/06/16 03:10:51;;;;;;;16.52;3.22;;;28.40;99.90;;;;;;5093774;28;20028;-55
2022/06/16 03:13:29;;;;;;;13.90;2.28;;;28.40;99.90;;;;;;5093814;28;20467;-54
2022/06/16 03:15:58;;;;;;;10.45;2.25;;;28.50;99.90;;;;;;5093706;28;20430;-55
2022/06/16 03:18:24;;;;;;;15.65;2.67;;;28.50;99.90;;;;;;5093767;28;20115;-55
2022/06/16 03:20:51;;;;;;;15.98;2.72;;;28.60;99.90;;;;;;5093721;28;20099;-55
2022/06/16 03:23:18;;;;;;;28.98;3.35;;;28.60;99.90;;;;;;5093520;28;20054;-55
2022/06/16 03:25:44;;;;;;;24.30;2.92;;;28.70;99.90;;;;;;5093688;28;20384;-55
2022/06/16 03:28:11;;;;;;;17.52;2.90;;;28.70;99.90;;;;;;5093368;28;20016;-55
2022/06/16 03:30:38;;;;;;;19.05;3.83;;;28.70;99.90;;;;;;5093470;28;20027;-55
2022/06/16 03:33:06;;;;;;;16.88;2.90;;;28.70;99.90;;;;;;5093281;28;20028;-55
2022/06/16 03:35:32;;;;;;;16.90;3.20;;;28.70;99.90;;;;;;5093472;28;20032;-55
2022/06/16 03:38:02;;;;;;;15.07;2.83;;;28.70;99.90;;;;;;5093326;28;20028;-55
2022/06/16 03:40:28;;;;;;;19.88;3.15;;;28.80;99.90;;;;;;5075121;28;20356;-55
2022/06/16 03:42:54;;;;;;;21.88;2.78;;;28.80;99.90;;;;;;5093182;28;20426;-55
2022/06/16 03:45:20;;;;;;;13.90;3.20;;;28.80;99.90;;;;;;5093022;28;20020;-55
2022/06/16 03:47:45;;;;;;;16.88;3.17;;;28.80;99.90;;;;;;5093185;28;20031;-55
2022/06/16 03:50:15;;;;;;;14.43;2.97;;;28.80;99.90;;;;;;5093072;28;20024;-55
2022/06/16 03:52:41;;;;;;;12.63;2.45;;;28.80;99.90;;;;;;5092930;28;20484;-55
2022/06/16 03:55:08;;;;;;;14.35;3.08;;;28.80;99.90;;;;;;5092893;28;20404;-55
2022/06/16 03:57:34;;;;;;;19.35;2.88;;;28.90;99.90;;;;;;5092795;28;20024;-55
2022/06/16 04:00:00;;;;;;;14.05;3.03;;;28.80;99.90;;;;;;5093213;28;20127;-55
2022/06/16 04:02:26;;;;;;;12.88;2.90;;;28.80;99.90;;;;;;5093308;28;20479;-54
2022/06/16 04:04:52;;;;;;;21.02;3.30;;;28.80;99.90;;;;;;5092858;28;20093;-54
2022/06/16 04:07:18;;;;;;;15.65;3.08;;;28.80;99.90;;;;;;5093086;28;20016;-54
2022/06/16 04:09:43;;;;;;;19.90;3.80;;;28.70;99.90;;;;;;5092533;28;20032;-54
2022/06/16 04:12:09;;;;;;;12.82;4.45;;;28.70;99.90;;;;;;5092633;28;20026;-55
2022/06/16 04:14:36;;;;;;;15.60;3.13;;;28.70;99.90;;;;;;5092760;28;20024;-55
2022/06/16 04:17:01;;;;;;;16.00;3.58;;;28.60;99.90;;;;;;5092611;28;20503;-54
2022/06/16 04:19:27;;;;;;;16.40;2.83;;;28.60;99.90;;;;;;5092554;28;20051;-54
2022/06/16 04:21:53;;;;;;;21.92;4.28;;;28.60;99.90;;;;;;5092422;28;20036;-54
2022/06/16 04:24:21;;;;;;;14.68;2.97;;;28.60;99.90;;;;;;5092788;28;20110;-54
2022/06/16 04:26:51;;;;;;;17.58;3.55;;;28.60;99.90;;;;;;5074444;28;20020;-54
2022/06/16 04:29:18;;;;;;;13.77;3.47;;;28.50;99.90;;;;;;5092586;28;20024;-54
2022/06/16 04:31:44;;;;;;;17.02;3.33;;;28.50;99.90;;;;;;5092383;28;20112;-54
2022/06/16 04:34:11;;;;;;;20.15;3.72;;;28.50;99.90;;;;;;5092225;28;20051;-54
2022/06/16 04:36:37;;;;;;;16.98;2.63;;;28.50;99.90;;;;;;5092253;28;20100;-54
2022/06/16 04:39:03;;;;;;;19.70;2.67;;;28.40;99.90;;;;;;5092025;28;20475;-54
2022/06/16 04:41:29;;;;;;;16.08;4.32;;;28.40;99.90;;;;;;5090890;28;20085;-55
2022/06/16 04:43:55;;;;;;;20.45;3.90;;;28.30;99.90;;;;;;5092075;28;20039;-54
2022/06/16 04:46:21;;;;;;;19.98;3.00;;;28.30;99.90;;;;;;5092303;28;20024;-55
2022/06/16 04:48:47;;;;;;;13.45;2.90;;;28.20;99.90;;;;;;5090956;28;20032;-55
2022/06/16 04:51:15;;;;;;;14.80;3.25;;;28.00;99.90;;;;;;5092032;28;20024;-55
2022/06/16 04:53:41;;;;;;;14.25;4.63;;;27.70;99.90;;;;;;5092017;28;20659;-55
2022/06/16 04:56:07;;;;;;;15.50;3.40;;;27.40;99.90;;;;;;5091888;28;20020;-54
2022/06/16 04:58:33;;;;;;;12.38;3.42;;;27.10;99.90;;;;;;5091923;28;20081;-55
2022/06/16 05:00:59;;;;;;;17.30;3.67;;;27.00;99.90;;;;;;5073439;28;20036;-54
2022/06/16 05:03:27;;;;;;;16.80;4.60;;;26.90;99.90;;;;;;5091670;28;20032;-55
2022/06/16 05:05:54;;;;;;;11.98;3.45;;;26.90;99.90;;;;;;5091742;28;20031;-55
2022/06/16 05:08:21;;;;;;;19.10;3.85;;;26.80;99.90;;;;;;5091978;28;20032;-55
2022/06/16 05:10:48;;;;;;;15.90;3.77;;;26.80;99.90;;;;;;5091273;28;20016;-54
2022/06/16 05:13:15;;;;;;;16.77;3.92;;;26.80;99.90;;;;;;5073512;28;20043;-55
2022/06/16 05:15:41;;;;;;;17.17;4.47;;;26.90;99.90;;;;;;5090391;28;20058;-54
2022/06/16 05:18:08;;;;;;;15.02;4.25;;;26.80;99.90;;;;;;5091445;28;20020;-54
2022/06/16 05:20:34;;;;;;;19.02;4.40;;;26.90;99.90;;;;;;5091457;28;20127;-54
2022/06/16 05:23:01;;;;;;;16.30;5.10;;;26.90;99.90;;;;;;5091438;28;20498;-54
2022/06/16 05:25:27;;;;;;;12.18;3.90;;;26.90;99.90;;;;;;5091620;28;20043;-54
2022/06/16 05:27:53;;;;;;;14.77;3.65;;;27.00;99.90;;;;;;5091678;28;20475;-55
2022/06/16 05:30:19;;;;;;;18.42;4.30;;;27.00;99.90;;;;;;5090454;28;20056;-55
2022/06/16 05:32:45;;;;;;;26.98;5.55;;;27.00;99.90;;;;;;5091498;28;20055;-55
2022/06/16 05:35:11;;;;;;;19.38;4.82;;;27.00;99.90;;;;;;5091511;28;20472;-56
2022/06/16 05:37:38;;;;;;;16.90;4.25;;;27.00;99.90;;;;;;5091473;28;20080;-55
2022/06/16 05:40:05;;;;;;;19.45;4.18;;;27.00;99.90;;;;;;5091446;28;20034;-55
2022/06/16 05:42:30;;;;;;;15.60;4.27;;;27.00;99.90;;;;;;5091222;28;20043;-54
2022/06/16 05:44:56;;;;;;;15.15;4.05;;;27.00;99.90;;;;;;5090263;28;20024;-55
2022/06/16 05:47:22;;;;;;;20.05;4.50;;;26.90;99.90;;;;;;5091683;28;20020;-58
2022/06/16 05:49:48;;;;;;;12.73;3.83;;;27.00;99.90;;;;;;5091615;28;20055;-55
2022/06/16 05:52:19;;;;;;;18.70;3.78;;;27.00;99.90;;;;;;5091275;28;20225;-56
2022/06/16 05:54:46;;;;;;;14.02;3.72;;;27.10;99.90;;;;;;5091155;28;20035;-55
2022/06/16 05:57:12;;;;;;;10.32;3.75;;;27.10;99.90;;;;;;5091191;28;20028;-55
2022/06/16 05:59:39;;;;;;;20.42;5.20;;;27.20;99.90;;;;;;5091195;28;20547;-55
2022/06/16 06:02:11;;;;;;;18.43;4.63;;;27.30;99.90;;;;;;5089822;28;20024;-55
2022/06/16 06:04:36;;;;;;;14.55;4.15;;;27.20;99.90;;;;;;5073257;28;20058;-55
2022/06/16 06:07:02;;;;;;;13.23;4.25;;;27.30;99.90;;;;;;5091267;28;20479;-55
2022/06/16 06:17:45;;;;;;;16.40;4.32;;;27.50;99.90;;;;;;5091271;28;20036;-54
2022/06/16 06:20:12;;;;;;;18.10;3.75;;;27.50;99.90;;;;;;5091077;28;20425;-54
2022/06/16 06:22:38;;;;;;;17.50;4.25;;;27.50;99.90;;;;;;5093648;28;20038;-55
2022/06/16 06:25:04;;;;;;;22.13;5.07;;;27.50;99.90;;;;;;5094694;28;20040;-54
2022/06/16 06:27:42;;;;;;;27.77;4.55;;;27.50;99.90;;;;;;5094479;28;20540;-55
2022/06/16 06:30:12;;;;;;;24.98;3.58;;;27.60;99.90;;;;;;5094392;28;20032;-55
2022/06/16 06:32:38;;;;;;;18.98;4.72;;;27.60;99.90;;;;;;5094537;28;20052;-55
2022/06/16 06:35:04;;;;;;;19.80;3.85;;;27.60;99.90;;;;;;5094501;28;20059;-54
2022/06/16 06:37:30;;;;;;;8.20;3.00;;;27.60;99.90;;;;;;5094469;28;20027;-54
2022/06/16 06:39:57;;;;;;;12.43;2.92;;;27.70;99.90;;;;;;5094380;28;20032;-54
2022/06/16 06:42:23;;;;;;;14.93;3.60;;;27.70;99.90;;;;;;5094349;28;20034;-54
2022/06/16 06:44:50;;;;;;;14.52;4.13;;;27.80;99.90;;;;;;5094029;28;20043;-54
2022/06/16 06:47:27;;;;;;;14.23;3.70;;;27.90;99.90;;;;;;5094118;28;20108;-54
2022/06/16 06:49:53;;;;;;;13.00;3.03;;;28.00;99.90;;;;;;5094500;28;20016;-54
2022/06/16 06:52:20;;;;;;;16.52;4.53;;;28.00;99.90;;;;;;5075869;28;20034;-55
2022/06/16 06:54:47;;;;;;;18.77;3.53;;;28.10;99.90;;;;;;5094105;28;20027;-54
2022/06/16 06:57:26;;;;;;;9.18;3.42;;;28.10;99.90;;;;;;5094010;28;20051;-55
2022/06/16 06:59:52;;;;;;;15.52;3.80;;;28.20;99.90;;;;;;5094014;28;20047;-55
2022/06/16 07:02:19;;;;;;;20.42;3.80;;;28.20;99.90;;;;;;5093943;28;20103;-55
2022/06/16 07:04:45;;;;;;;25.42;5.00;;;28.30;99.90;;;;;;5093741;28;20032;-55
2022/06/16 07:07:14;;;;;;;19.20;3.92;;;28.30;99.90;;;;;;5093843;28;20070;-55
2022/06/16 07:09:39;;;;;;;30.17;4.85;;;28.30;99.90;;;;;;5093861;28;20169;-55
2022/06/16 07:12:13;;;;;;;16.02;5.53;;;28.30;99.90;;;;;;5093690;28;20024;-55
2022/06/16 07:14:40;;;;;;;15.80;4.43;;;28.30;99.90;;;;;;5093743;28;20031;-55
2022/06/16 07:17:06;;;;;;;15.02;4.07;;;28.30;99.90;;;;;;5093580;28;20020;-55
2022/06/16 07:19:34;;;;;;;11.40;4.15;;;28.30;99.90;;;;;;5093523;28;20035;-55
2022/06/16 07:22:00;;;;;;;10.27;3.65;;;28.30;99.90;;;;;;5093491;28;20103;-55
2022/06/16 07:24:26;;;;;;;13.95;3.40;;;28.30;99.90;;;;;;5093493;28;20551;-54
2022/06/16 07:26:52;;;;;;;15.82;4.72;;;28.40;99.90;;;;;;5093392;28;20107;-55
2022/06/16 07:29:18;;;;;;;16.83;4.50;;;28.40;99.90;;;;;;5093598;28;20027;-55
2022/06/16 07:31:43;;;;;;;26.30;5.55;;;28.40;99.90;;;;;;5093188;28;20494;-55
2022/06/16 07:34:09;;;;;;;15.55;4.38;;;28.50;99.90;;;;;;5092988;28;20036;-55
2022/06/16 07:36:35;;;;;;;17.42;3.70;;;28.50;99.90;;;;;;5093477;28;20029;-55
2022/06/16 07:39:02;;;;;;;14.75;3.80;;;28.50;99.90;;;;;;5093012;28;20028;-55
2022/06/16 07:41:36;;;;;;;14.38;3.60;;;28.60;99.90;;;;;;5093260;28;20099;-55
2022/06/16 07:44:14;;;;;;;12.20;3.15;;;28.60;99.90;;;;;;5093119;28;20437;-55
2022/06/16 07:46:42;;;;;;;10.35;3.25;;;28.60;99.90;;;;;;5093170;28;20031;-55
2022/06/16 07:49:12;;;;;;;9.35;3.00;;;28.70;99.90;;;;;;5092806;28;20185;-55
2022/06/16 07:51:39;;;;;;;15.85;3.72;;;28.70;99.90;;;;;;5091601;28;20024;-55
2022/06/16 07:54:06;;;;;;;17.08;3.90;;;28.80;99.90;;;;;;5092813;28;20048;-55
2022/06/16 07:56:32;;;;;;;11.82;3.15;;;28.80;99.90;;;;;;5092917;28;20021;-55
2022/06/16 07:58:57;;;;;;;19.42;3.72;;;28.80;99.90;;;;;;5092931;28;20418;-55
2022/06/16 08:01:23;;;;;;;18.83;4.07;;;28.80;99.90;;;;;;5092692;28;20048;-56
2022/06/16 08:03:49;;;;;;;13.18;3.63;;;28.90;99.90;;;;;;5091333;28;20032;-55
2022/06/16 08:06:18;;;;;;;13.38;3.78;;;28.90;99.90;;;;;;5092626;28;20030;-56
2022/06/16 08:08:44;;;;;;;17.80;3.40;;;28.90;99.90;;;;;;5092692;28;20020;-56
2022/06/16 08:12:03;;;;;;;14.50;4.07;;;29.00;99.90;;;;;;5092660;28;20035;-55
2022/06/16 08:13:58;;;;;;;;;;;29.00;99.90;;;;;;5093016;28;20047;-55
2022/06/16 08:16:24;;;;;;;27.10;5.68;;;29.00;99.90;;;;;;5092563;28;20328;-55
2022/06/16 08:18:50;;;;;;;10.98;2.70;;;29.10;99.90;;;;;;5092504;28;20120;-55
2022/06/16 08:21:16;;;;;;;11.73;3.15;;;29.10;99.90;;;;;;5092466;28;20352;-55
2022/06/16 08:23:42;;;;;;;14.73;3.30;;;29.10;99.90;;;;;;5092186;28;20070;-55
2022/06/16 08:26:08;;;;;;;11.55;2.88;;;29.10;99.90;;;;;;5092449;28;20425;-55
2022/06/16 08:28:34;;;;;;;7.85;2.85;;;29.10;99.90;;;;;;5092431;28;20155;-55
2022/06/16 08:31:01;;;;;;;9.10;3.33;;;29.10;99.90;;;;;;5092547;28;20084;-55
2022/06/16 08:33:27;;;;;;;8.10;2.85;;;29.10;99.90;;;;;;5092233;28;20440;-55
2022/06/16 08:35:53;;;;;;;12.20;3.42;;;29.10;99.90;;;;;;5091958;28;20036;-55
2022/06/16 08:38:19;;;;;;;15.15;3.45;;;29.20;99.90;;;;;;5092038;28;20085;-55
2022/06/16 08:40:48;;;;;;;14.05;2.72;;;29.20;99.90;;;;;;5092054;28;20028;-55
2022/06/16 08:43:29;;;;;;;12.55;2.70;;;29.20;99.90;;;;;;5091914;28;20043;-55
2022/06/16 08:46:00;;;;;;;9.50;3.28;;;29.20;99.90;;;;;;5073389;28;20020;-56
2022/06/16 08:48:37;;;;;;;16.42;2.80;;;29.30;99.90;;;;;;5091887;28;20050;-55
2022/06/16 08:51:10;;;;;;;;;;;29.30;99.90;;;;;;5092481;28;20095;-55
2022/06/16 08:54:09;;;;;;;12.45;2.80;;;29.30;99.90;;;;;;5091837;28;19900;-55
2022/06/16 08:56:57;;;;;;;11.25;3.08;;;29.30;99.90;;;;;;5091863;28;20052;-55
2022/06/16 08:59:52;;;;;;;8.95;3.50;;;29.30;99.90;;;;;;5091808;28;20479;-55
2022/06/16 09:02:40;;;;;;;9.75;3.50;;;29.40;99.90;;;;;;5091696;28;20040;-55
2022/06/16 09:05:52;;;;;;;8.90;3.30;;;29.30;99.90;;;;;;5091616;28;20032;-55
2022/06/16 09:08:24;;;;;;;10.05;3.35;;;29.30;99.90;;;;;;5088177;28;20051;-55
2022/06/16 09:10:59;;;;;;;6.97;3.50;;;29.40;99.90;;;;;;5091692;28;20020;-55
2022/06/16 09:14:03;;;;;;;8.25;2.78;;;29.40;99.90;;;;;;5091467;28;20028;-55
2022/06/16 09:16:47;;;;;;;15.15;3.15;;;29.40;99.90;;;;;;5009125;28;20026;-55
2022/06/16 09:19:37;;;;;;;10.75;3.28;;;29.30;99.90;;;;;;5084671;28;20040;-55
2022/06/16 09:22:15;;;;;;;13.35;3.33;;;29.40;99.90;;;;;;5091595;28;20020;-55
2022/06/16 09:24:40;;;;;;;10.00;3.10;;;29.40;99.90;;;;;;5091406;28;20046;-55
2022/06/16 09:27:18;;;;;;;11.55;2.65;;;29.40;99.90;;;;;;5091307;28;20036;-56
2022/06/16 09:29:51;;;;;;;7.40;2.88;;;29.40;99.90;;;;;;5091273;28;20357;-55
2022/06/16 09:32:34;;;;;;;6.90;2.97;;;29.40;99.90;;;;;;5091210;28;20024;-55
2022/06/16 09:35:13;;;;;;;7.35;3.00;;;29.50;99.90;;;;;;5091040;28;20032;-55
2022/06/16 09:38:12;;;;;;;14.13;4.10;;;29.50;99.90;;;;;;5091235;28;20074;-55
2022/06/16 09:40:46;;;;;;;6.30;2.53;;;29.50;99.90;;;;;;5091256;28;20028;-56
2022/06/16 09:43:35;;;;;;;9.30;3.22;;;29.50;99.90;;;;;;5091023;28;20032;-55
2022/06/16 09:46:15;;;;;;;10.82;2.63;;;29.50;99.90;;;;;;5090450;28;20028;-56
2022/06/16 09:48:59;;;;;;;11.57;2.90;;;29.50;99.90;;;;;;5090992;28;20032;-55
2022/06/16 09:51:35;;;;;;;10.88;3.33;;;29.50;99.90;;;;;;5089659;28;20085;-55
2022/06/16 09:54:09;;;;;;;11.52;3.15;;;29.60;99.90;;;;;;5091013;28;20028;-56
2022/06/16 09:57:00;;;;;;;13.38;2.90;;;29.50;99.90;;;;;;5094173;28;20498;-55
2022/06/16 09:59:32;;;;;;;10.30;2.30;;;29.50;99.90;;;;;;5094423;28;20447;-55
2022/06/16 10:02:04;;;;;;;8.07;2.35;;;29.50;99.90;;;;;;5095106;28;20062;-55
2022/06/16 10:04:30;;;;;;;13.52;3.45;;;29.60;99.90;;;;;;5094906;28;20074;-55
2022/06/16 10:07:28;;;;;;;5.28;2.10;;;29.60;99.90;;;;;;5095015;28;20047;-55
2022/06/16 10:10:11;;;;;;;7.50;2.78;;;29.60;99.90;;;;;;5094625;28;20044;-56
2022/06/16 10:12:36;;;;;;;13.45;3.63;;;29.60;99.90;;;;;;5095032;28;20498;-56
2022/06/16 10:15:13;;;;;;;13.73;2.60;;;29.60;99.90;;;;;;5094941;28;20055;-56
2022/06/16 10:17:42;;;;;;;6.63;2.15;;;29.60;99.90;;;;;;5094768;28;20016;-56
2022/06/16 10:20:09;;;;;;;6.80;2.28;;;29.60;99.90;;;;;;5094781;28;20024;-56
2022/06/16 10:22:36;;;;;;;;;;;29.60;99.90;;;;;;5095347;28;20096;-56
2022/06/16 10:25:13;;;;;;;9.73;2.42;;;29.70;99.90;;;;;;5094789;28;19961;-53
2022/06/16 10:27:44;;;;;;;;;;;29.70;99.90;;;;;;5095133;28;20511;-54
2022/06/16 10:30:26;;;;;;;9.60;2.83;;;29.70;99.90;;;;;;5094547;28;19991;-54
2022/06/16 10:33:20;;;;;;;6.30;2.13;;;29.70;99.90;;;;;;5094477;28;20383;-54
2022/06/16 10:35:58;;;;;;;9.05;2.95;;;29.70;99.90;;;;;;5084476;28;20051;-54
2022/06/16 10:38:32;;;;;;;7.35;2.63;;;29.70;99.90;;;;;;5094320;28;20028;-54
2022/06/16 10:41:05;;;;;;;13.38;2.95;;;29.70;99.90;;;;;;5094436;28;20055;-54
2022/06/16 10:43:36;;;;;;;11.10;2.72;;;29.70;99.90;;;;;;5094375;28;20043;-54
2022/06/16 10:46:13;;;;;;;12.25;3.63;;;29.70;99.90;;;;;;5094128;28;20035;-55
2022/06/16 10:48:45;;;;;;;15.57;3.60;;;29.70;99.90;;;;;;5094369;28;20016;-55
2022/06/16 10:51:20;;;;;;;9.93;3.22;;;29.70;99.90;;;;;;5094190;28;20360;-54
2022/06/16 10:54:03;;;;;;;6.47;2.50;;;29.70;99.90;;;;;;5094016;28;20076;-54
2022/06/16 10:56:29;;;;;;;12.10;2.28;;;29.70;99.90;;;;;;5093960;28;20008;-54
2022/06/16 10:58:58;;;;;;;6.72;2.65;;;29.70;99.90;;;;;;5093993;28;20074;-55
2022/06/16 11:01:30;;;;;;;12.82;3.13;;;29.80;99.90;;;;;;5093781;28;20044;-54
2022/06/16 11:04:09;;;;;;;10.05;2.90;;;29.70;99.90;;;;;;5093883;28;20044;-54
2022/06/16 11:06:40;;;;;;;10.75;2.88;;;29.70;99.90;;;;;;5093438;28;20031;-54
2022/06/16 11:09:07;;;;;;;10.90;2.78;;;29.70;99.90;;;;;;5092585;28;20032;-54
2022/06/16 11:11:42;;;;;;;6.25;2.50;;;29.70;99.90;;;;;;5093696;28;20036;-55
2022/06/16 11:14:22;;;;;;;8.65;2.45;;;29.70;99.90;;;;;;5093968;28;20059;-54
2022/06/16 11:16:54;;;;;;;10.18;2.65;;;29.60;99.90;;;;;;5093516;28;20024;-54
2022/06/16 11:19:35;;;;;;;8.27;3.53;;;29.70;99.90;;;;;;5093740;28;20081;-54
2022/06/16 11:22:40;;;;;;;10.52;2.72;;;29.70;99.90;;;;;;5093557;28;20032;-56
2022/06/16 11:25:17;;;;;;;11.90;3.30;;;29.70;99.90;;;;;;5010877;28;20049;-53
2022/06/16 11:28:10;;;;;;;8.48;2.40;;;29.70;99.90;;;;;;5085528;28;20055;-54
2022/06/16 11:30:47;;;;;;;9.45;3.13;;;29.70;99.90;;;;;;5089813;28;20107;-54
2022/06/16 11:36:39;;;;;;;13.25;3.17;;;29.80;99.90;;;;;;5093428;28;20027;-55
2022/06/16 11:39:13;;;;;;;9.60;2.80;;;29.80;99.90;;;;;;5075061;28;20077;-56
2022/06/16 11:41:46;;;;;;;7.68;2.25;;;29.80;99.90;;;;;;5093421;28;20024;-55
2022/06/16 11:44:32;;;;;;;6.38;2.53;;;29.80;99.90;;;;;;5093188;28;20122;-55
2022/06/16 11:47:01;;;;;;;6.10;2.47;;;29.80;99.90;;;;;;5093125;28;20475;-54
2022/06/16 11:49:52;;;;;;;11.70;2.92;;;29.90;99.90;;;;;;5093148;28;20027;-55
2022/06/16 11:52:24;;;;;;;17.52;3.97;;;29.80;99.90;;;;;;5081958;28;20032;-55
2022/06/16 11:55:22;;;;;;;11.70;3.17;;;29.80;99.90;;;;;;5092951;28;20028;-56
2022/06/16 11:58:06;;;;;;;20.30;3.60;;;29.90;99.90;;;;;;5061273;28;20097;-55
2022/06/16 12:00:55;;;;;;;8.52;2.45;;;29.80;99.90;;;;;;5092594;28;20506;-55
2022/06/16 12:03:29;;;;;;;7.90;2.92;;;29.80;99.90;;;;;;5092553;28;20066;-55
2022/06/16 12:06:16;;;;;;;10.45;2.65;;;29.90;99.90;;;;;;5091313;28;20039;-55
2022/06/16 12:09:06;;;;;;;9.63;3.38;;;29.90;99.90;;;;;;5092695;28;20028;-54
2022/06/16 12:11:35;;;;;;;10.85;2.67;;;29.90;99.90;;;;;;5092403;28;20487;-54
2022/06/16 12:14:14;;;;;;;9.23;2.75;;;29.80;99.90;;;;;;5092299;28;20032;-54
2022/06/16 12:17:06;;;;;;;11.10;2.38;;;29.90;99.90;;;;;;5092665;28;20046;-53
2022/06/16 12:20:05;;;;;;;7.13;2.60;;;30.00;99.90;;;;;;5092476;28;20032;-54
2022/06/16 12:22:31;;;;;;;7.28;2.80;;;30.00;99.90;;;;;;5085817;28;20142;-53
2022/06/16 12:25:12;;;;;;;6.53;2.50;;;30.00;99.90;;;;;;5091977;28;20482;-54
2022/06/16 12:27:49;;;;;;;8.50;2.17;;;30.00;99.90;;;;;;5092286;28;20486;-53
2022/06/16 12:30:24;;;;;;;10.80;2.58;;;30.00;99.90;;;;;;5092127;28;20020;-53
2022/06/16 12:33:12;;;;;;;9.70;2.95;;;30.00;99.90;;;;;;5092042;28;20036;-53
2022/06/16 12:35:51;;;;;;;7.85;2.28;;;30.00;99.90;;;;;;5073894;28;20030;-53
2022/06/16 12:38:30;;;;;;;9.02;3.35;;;30.00;99.90;;;;;;5092118;28;20368;-53
2022/06/16 12:41:22;;;;;;;16.42;3.03;;;30.10;99.90;;;;;;5090619;28;20020;-53
2022/06/16 12:43:58;;;;;;;6.70;2.42;;;30.10;99.90;;;;;;5077468;28;20458;-53
2022/06/16 12:46:31;;;;;;;9.07;2.38;;;30.10;99.90;;;;;;5091590;28;20020;-53
2022/06/16 12:49:09;;;;;;;9.10;2.38;;;30.20;99.90;;;;;;5091758;28;20111;-53
2022/06/16 12:51:47;;;;;;;11.20;3.10;;;30.20;99.90;;;;;;5091770;28;20049;-53
2022/06/16 12:54:24;;;;;;;7.85;2.72;;;30.10;99.90;;;;;;5091621;28;20103;-53
2022/06/16 12:57:06;;;;;;;8.73;3.20;;;29.90;99.90;;;;;;5091628;28;20030;-53
2022/06/16 12:59:42;;;;;;;13.20;3.63;;;29.70;99.90;;;;;;5091329;28;20491;-53
2022/06/16 13:02:15;;;;;;;8.02;3.17;;;29.50;99.90;;;;;;5091942;28;20090;-53
2022/06/16 13:04:42;;;;;;;16.05;3.50;;;29.40;99.90;;;;;;5091758;28;20035;-53
2022/06/16 13:07:10;;;;;;;;;;;29.50;99.90;;;;;;5081747;28;20087;-53
2022/06/16 13:09:36;;;;;;;8.25;2.55;;;29.40;99.90;;;;;;5082471;28;19911;-52
2022/06/16 13:12:14;;;;;;;17.38;3.00;;;29.20;99.90;;;;;;5071157;28;20036;-52
2022/06/16 13:14:58;;;;;;;11.00;3.88;;;29.00;99.90;;;;;;5071499;28;20032;-53
2022/06/16 13:17:30;;;;;;;8.10;2.78;;;29.00;99.90;;;;;;5072068;28;20078;-52
2022/06/16 13:20:05;;;;;;;8.02;2.55;;;28.90;99.90;;;;;;5091397;28;20066;-52
2022/06/16 13:22:43;;;;;;;11.55;2.97;;;28.90;99.90;;;;;;5091226;28;20410;-52
2022/06/16 13:25:12;;;;;;;10.45;3.22;;;28.90;99.90;;;;;;5091302;28;20097;-53
2022/06/16 13:27:38;;;;;;;14.88;3.38;;;28.90;99.90;;;;;;5091196;28;20069;-53
2022/06/16 13:30:09;;;;;;;11.93;3.20;;;29.10;99.90;;;;;;5079249;28;20403;-53